Thursday, March 21, 2019, 4:54 PM EDT
Back to Local

KOWD, Norwood Memorial Airport

Location: Norwood, MA, United States Lat: 42.183
Local Time: 4:54 PM EDT (20:54 GMT) Lon: -71.167
Time Zone: US/Eastern Elev: 49 ft

Show me the last for .
Show Decoded

2019-03-21 15:53 METAR KOWD 211953Z 15007KT 10SM OVC060 10/M04 A3007 RMK AO2 SLP184 T01001039 =
2019-03-21 14:53 METAR KOWD 211853Z 17011KT 10SM OVC055 11/M03 A3010 RMK AO2 SLP193 T01111028 =
2019-03-21 13:53 METAR KOWD 211753Z 17008G16KT 130V190 10SM BKN055 OVC070 12/M02 A3011 RMK AO2
                 SLP195 T01171022 10117 20028 58031 =
2019-03-21 12:53 METAR KOWD 211653Z 17014G20KT 10SM OVC055 11/M04 A3015 RMK AO2 SLP209 T01061044
                 =
2019-03-21 11:53 METAR KOWD 211553Z 15009KT 10SM OVC050 11/M03 A3016 RMK AO2 SLP213 T01111028 =
2019-03-21 10:53 METAR KOWD 211453Z 16009KT 10SM OVC055 09/M02 A3020 RMK AO2 SLP226 T00941022
                 58014 =
2019-03-21 09:53 METAR KOWD 211353Z 17009KT 10SM OVC060 08/M02 A3022 RMK AO2 SLP233 T00781017 =
2019-03-21 08:53 METAR KOWD 211253Z VRB04KT 10SM SCT110 06/M02 A3023 RMK AO2 SLP236 T00611017 =
2019-03-21 07:53 METAR KOWD 211153Z VRB03KT 10SM BKN120 03/M01 A3024 RMK AO2 SLP241 I6001
                 T00281006 10028 21028 58002 =
2019-03-21 06:53 METAR KOWD 211053Z 00000KT 7SM FEW110 M02/M04 A3026 RMK AO2 SLP248 I1001
                 T10221039 =
2019-03-21 05:53 METAR KOWD 210953Z AUTO 00000KT 10SM CLR M03/M05 A3026 RMK AO2 SLP248 I1000
                 T10281050 =
2019-03-21 04:53 METAR KOWD 210853Z AUTO 00000KT 10SM CLR M02/M04 A3025 RMK AO2 SLP244 I1000
                 I3000 T10171044 58016 =
2019-03-21 03:53 METAR KOWD 210753Z AUTO 00000KT 9SM OVC120 M01/M03 A3026 RMK AO2 SLP248
                 T10061033 =
2019-03-21 02:53 METAR KOWD 210653Z AUTO 00000KT 10SM CLR 01/M02 A3029 RMK AO2 SLP256 T00111017 =
2019-03-21 01:53 METAR KOWD 210553Z AUTO 17004KT 10SM CLR 02/M01 A3030 RMK AO2 SLP259 T00221011
                 10061 20017 58007 =
2019-03-21 00:53 METAR KOWD 210453Z AUTO 17004KT 10SM CLR 02/M02 A3031 RMK AO2 SLP262 T00171017
                 401171056 =
2019-03-20 23:53 METAR KOWD 210353Z AUTO 19003KT 10SM CLR 04/M02 A3031 RMK AO2 SLP264 T00391017 =
2019-03-20 22:53 METAR KOWD 210253Z AUTO 17005KT 10SM CLR 04/M03 A3032 RMK AO2 SLP266 T00441028
                 50005 =
2019-03-20 21:53 METAR KOWD 210153Z AUTO 20005KT 10SM CLR 05/M04 A3032 RMK AO2 SLP267 T00501039 =
2019-03-20 20:53 METAR KOWD 210053Z AUTO 16006KT 10SM CLR 05/M04 A3032 RMK AO2 SLP269 T00501039 =
2019-03-20 19:53 METAR KOWD 202353Z 16008KT 10SM CLR 06/M03 A3030 RMK AO2 SLP262 T00611033 10117
                 20056 53008 =
2019-03-20 18:53 METAR KOWD 202253Z 19012KT 10SM CLR 08/M03 A3028 RMK AO2 SLP256 T00781033 =
2019-03-20 17:53 METAR KOWD 202153Z 17011KT 10SM CLR 09/M02 A3027 RMK AO2 SLP251 T00891017 =

Support USWX by starting your Amazon purchase here.